createdAt,value
2023-03-29T00:00:08.308Z,4.88
2023-03-29T00:02:35.603Z,4.94
2023-03-29T00:05:04.334Z,4.98
2023-03-29T00:07:33.570Z,4.91
2023-03-29T00:10:04.645Z,4.91
2023-03-29T00:12:32.747Z,4.89
2023-03-29T00:14:59.936Z,4.82
2023-03-29T00:17:27.242Z,4.83
2023-03-29T00:19:54.526Z,4.92
2023-03-29T00:22:22.073Z,4.89
2023-03-29T00:24:49.269Z,4.90
2023-03-29T00:27:17.095Z,4.82
2023-03-29T00:29:44.269Z,4.86
2023-03-29T00:32:11.473Z,4.93
2023-03-29T00:34:42.753Z,4.91
2023-03-29T00:37:09.874Z,4.89
2023-03-29T00:39:37.172Z,4.94
2023-03-29T00:42:04.370Z,4.98
2023-03-29T00:45:08.950Z,4.92
2023-03-29T00:47:46.450Z,5.01
2023-03-29T00:50:16.433Z,5.06
2023-03-29T00:52:48.761Z,5.15
2023-03-29T00:55:21.803Z,5.09
2023-03-29T00:57:52.138Z,5.08
2023-03-29T01:00:22.281Z,5.16
2023-03-29T01:02:54.562Z,5.14
2023-03-29T01:05:29.604Z,5.19
2023-03-29T01:08:01.184Z,5.24
2023-03-29T01:10:39.241Z,5.23
2023-03-29T01:13:13.391Z,5.17
2023-03-29T01:15:43.550Z,5.20
2023-03-29T01:18:11.203Z,5.19
2023-03-29T01:20:42.487Z,5.23
2023-03-29T01:23:31.116Z,5.18
2023-03-29T01:26:01.766Z,5.14
2023-03-29T01:28:35.219Z,5.14
2023-03-29T01:31:17.895Z,5.09
2023-03-29T01:33:52.058Z,5.05
2023-03-29T01:36:27.225Z,5.03
2023-03-29T01:38:57.947Z,4.98
2023-03-29T01:41:35.920Z,4.94
2023-03-29T01:44:07.376Z,4.95
2023-03-29T01:46:59.446Z,4.94
2023-03-29T01:49:34.618Z,4.89
2023-03-29T01:52:08.269Z,4.82
2023-03-29T01:54:41.743Z,4.84
2023-03-29T01:57:10.652Z,4.82
2023-03-29T01:59:43.090Z,4.76
2023-03-29T02:02:15.899Z,4.79
2023-03-29T02:04:53.437Z,4.77
2023-03-29T02:07:26.648Z,4.72
2023-03-29T02:09:54.728Z,4.69
2023-03-29T02:12:22.314Z,4.75
2023-03-29T02:14:49.513Z,4.74
2023-03-29T02:17:20.029Z,4.67
2023-03-29T02:19:50.550Z,4.57
2023-03-29T02:22:24.184Z,4.52
2023-03-29T02:24:59.007Z,4.48
2023-03-29T02:27:30.024Z,4.48
2023-03-29T02:29:57.247Z,4.45
2023-03-29T02:32:57.233Z,4.48
2023-03-29T02:35:38.174Z,4.48
2023-03-29T02:38:10.574Z,4.38
2023-03-29T02:40:39.719Z,4.42
2023-03-29T02:43:08.356Z,4.40
2023-03-29T02:45:37.112Z,4.30
2023-03-29T02:48:09.231Z,4.27
2023-03-29T02:50:39.484Z,4.28
2023-03-29T02:53:19.183Z,4.25
2023-03-29T02:55:46.909Z,4.14
2023-03-29T02:58:15.491Z,4.24
2023-03-29T03:00:46.258Z,4.16
2023-03-29T03:03:15.346Z,4.12
2023-03-29T03:05:43.222Z,4.21
2023-03-29T03:08:10.460Z,4.23
2023-03-29T03:10:37.620Z,4.23
2023-03-29T03:13:04.682Z,4.24
2023-03-29T03:15:35.607Z,4.18
2023-03-29T03:18:03.942Z,4.20
2023-03-29T03:20:31.648Z,4.16
2023-03-29T03:22:59.220Z,4.07
2023-03-29T03:25:26.227Z,4.11
2023-03-29T03:27:53.690Z,4.10
2023-03-29T03:30:21.167Z,4.16
2023-03-29T03:32:49.969Z,4.12
2023-03-29T03:35:18.175Z,4.17
2023-03-29T03:37:45.300Z,4.12
2023-03-29T03:40:13.743Z,4.05
2023-03-29T03:42:41.584Z,4.12
2023-03-29T03:45:09.903Z,4.11
2023-03-29T03:47:40.263Z,4.11
2023-03-29T03:50:09.083Z,4.09
2023-03-29T03:52:36.352Z,4.13
2023-03-29T03:55:03.829Z,4.12
2023-03-29T03:57:33.084Z,4.02
2023-03-29T04:00:00.161Z,3.98
2023-03-29T04:02:27.623Z,3.91
2023-03-29T04:04:54.790Z,3.77
2023-03-29T04:07:21.946Z,3.81
2023-03-29T04:09:49.680Z,3.81
2023-03-29T04:12:17.072Z,3.86
2023-03-29T04:14:44.862Z,3.76
2023-03-29T04:17:12.201Z,3.80
2023-03-29T04:19:39.548Z,3.72
2023-03-29T04:22:06.721Z,3.74
2023-03-29T04:24:33.881Z,3.80
2023-03-29T04:27:01.051Z,3.76
2023-03-29T04:29:28.728Z,3.79
2023-03-29T04:31:56.477Z,3.73
2023-03-29T04:34:23.619Z,3.71
2023-03-29T04:36:50.747Z,3.54
2023-03-29T04:39:20.767Z,3.69
2023-03-29T04:41:48.559Z,3.68
2023-03-29T04:44:16.272Z,3.66
2023-03-29T04:46:43.458Z,3.61
2023-03-29T04:49:11.454Z,3.70
2023-03-29T04:51:39.110Z,3.73
2023-03-29T04:54:09.185Z,3.71
2023-03-29T04:56:42.060Z,3.78
2023-03-29T04:59:10.632Z,3.86
2023-03-29T05:01:43.700Z,3.89
2023-03-29T05:04:15.998Z,3.91
2023-03-29T05:06:47.104Z,3.96
2023-03-29T05:09:15.838Z,4.06
2023-03-29T05:11:48.075Z,4.09
2023-03-29T05:14:19.936Z,4.05
2023-03-29T05:16:48.163Z,4.18
2023-03-29T05:19:18.243Z,4.18
2023-03-29T05:21:51.945Z,4.16
2023-03-29T05:24:23.929Z,4.24
2023-03-29T05:26:57.131Z,4.34
2023-03-29T05:29:26.012Z,4.37
2023-03-29T05:31:57.212Z,4.46
2023-03-29T05:37:21.583Z,4.63
2023-03-29T05:39:51.345Z,4.71
2023-03-29T05:42:24.215Z,4.76
2023-03-29T05:44:54.562Z,4.82
2023-03-29T05:47:39.258Z,4.84
2023-03-29T05:50:14.392Z,4.87
2023-03-29T05:52:44.584Z,4.94
2023-03-29T05:55:16.128Z,4.99
2023-03-29T05:57:44.680Z,5.06
2023-03-29T06:00:24.506Z,5.05
2023-03-29T06:03:01.378Z,5.08
2023-03-29T06:05:41.892Z,5.09
2023-03-29T06:08:14.776Z,5.18
2023-03-29T06:10:45.052Z,5.20
2023-03-29T06:13:14.315Z,5.26
2023-03-29T06:15:43.826Z,5.28
2023-03-29T06:18:12.423Z,5.38
2023-03-29T06:20:41.507Z,5.36
2023-03-29T06:23:17.933Z,5.47
2023-03-29T06:25:47.897Z,5.52
2023-03-29T06:28:17.866Z,5.55
2023-03-29T06:30:48.778Z,5.62
2023-03-29T06:33:21.913Z,5.59
2023-03-29T06:35:52.514Z,5.64
2023-03-29T06:38:24.807Z,5.70
2023-03-29T06:40:53.524Z,5.74
2023-03-29T06:43:25.026Z,5.85
2023-03-29T06:45:55.647Z,5.87
2023-03-29T06:48:27.131Z,5.91
2023-03-29T06:50:56.498Z,6.03
2023-03-29T06:53:29.264Z,6.11
2023-03-29T06:55:57.508Z,6.15
2023-03-29T06:58:28.538Z,6.13
2023-03-29T07:01:03.112Z,6.21
2023-03-29T07:03:50.322Z,6.20
2023-03-29T07:06:28.058Z,6.24
2023-03-29T07:09:00.885Z,6.25
2023-03-29T07:11:30.073Z,6.34
2023-03-29T07:14:03.769Z,6.41
2023-03-29T07:16:33.277Z,6.53
2023-03-29T07:19:06.193Z,6.50
2023-03-29T07:21:37.405Z,6.47
2023-03-29T07:24:18.130Z,6.47
2023-03-29T07:27:03.272Z,6.49
2023-03-29T07:29:33.202Z,6.53
2023-03-29T07:32:01.510Z,6.51
2023-03-29T07:34:34.078Z,6.62
2023-03-29T07:37:03.553Z,6.61
2023-03-29T07:39:32.578Z,6.60
2023-03-29T07:42:01.123Z,6.76
2023-03-29T07:44:32.035Z,6.82
2023-03-29T07:47:06.549Z,6.87
2023-03-29T07:49:35.120Z,6.88
2023-03-29T07:52:05.188Z,6.97
2023-03-29T07:54:36.230Z,7.13
2023-03-29T07:57:07.841Z,7.27
2023-03-29T07:59:37.012Z,7.24
2023-03-29T08:02:06.944Z,7.22
2023-03-29T08:04:35.818Z,7.28
2023-03-29T08:07:05.593Z,7.45
2023-03-29T08:09:34.396Z,7.53
2023-03-29T08:12:03.838Z,7.45
2023-03-29T08:14:32.669Z,7.50
2023-03-29T08:17:01.863Z,7.66
2023-03-29T08:19:31.360Z,7.65
2023-03-29T08:22:02.048Z,7.63
2023-03-29T08:24:31.188Z,7.84
2023-03-29T08:27:00.059Z,7.94
2023-03-29T08:29:29.785Z,7.94
2023-03-29T08:32:00.495Z,8.00
2023-03-29T08:34:30.116Z,8.03
2023-03-29T08:37:01.293Z,8.14
2023-03-29T08:39:32.202Z,8.12
2023-03-29T08:42:38.161Z,8.24
2023-03-29T08:45:32.222Z,8.38
2023-03-29T08:48:07.631Z,8.41
2023-03-29T08:50:48.648Z,8.42
2023-03-29T08:53:39.240Z,8.38
2023-03-29T08:56:13.544Z,8.39
2023-03-29T08:58:45.044Z,8.59
2023-03-29T09:01:16.210Z,8.48
2023-03-29T09:04:07.427Z,8.62
2023-03-29T09:06:37.710Z,8.63
2023-03-29T09:09:19.323Z,8.54
2023-03-29T09:11:54.950Z,8.62
2023-03-29T09:14:45.755Z,8.53
2023-03-29T09:17:28.772Z,8.57
2023-03-29T09:20:56.048Z,8.58
2023-03-29T09:23:55.705Z,8.60
2023-03-29T09:26:50.738Z,8.62
2023-03-29T09:29:44.398Z,8.65
2023-03-29T09:32:24.896Z,8.57
2023-03-29T09:35:05.664Z,8.62
2023-03-29T09:37:39.581Z,8.74
2023-03-29T09:40:20.514Z,8.77
2023-03-29T09:42:53.117Z,8.82
2023-03-29T09:45:22.744Z,8.87
2023-03-29T09:48:11.632Z,8.91
2023-03-29T09:50:49.711Z,8.99
2023-03-29T09:53:23.726Z,9.14
2023-03-29T09:55:53.188Z,9.19
2023-03-29T09:58:29.015Z,9.20
2023-03-29T10:01:02.611Z,9.15
2023-03-29T10:03:35.810Z,9.13
2023-03-29T10:06:07.523Z,9.15
2023-03-29T10:08:48.407Z,9.17
2023-03-29T10:11:25.285Z,9.40
2023-03-29T10:14:04.273Z,9.43
2023-03-29T10:16:46.772Z,9.59
2023-03-29T10:19:36.888Z,9.76
2023-03-29T10:22:18.095Z,10.09
2023-03-29T10:25:00.989Z,10.17
2023-03-29T10:27:33.462Z,10.39
2023-03-29T10:30:14.580Z,10.45
2023-03-29T10:32:47.414Z,10.56
2023-03-29T10:35:29.513Z,10.67
2023-03-29T10:38:01.418Z,10.73
2023-03-29T10:40:46.350Z,11.01
2023-03-29T10:43:22.155Z,10.92
2023-03-29T10:45:56.227Z,10.87
2023-03-29T10:48:31.164Z,10.81
2023-03-29T10:51:05.605Z,10.96
2023-03-29T10:53:36.067Z,10.75
2023-03-29T10:56:07.737Z,10.75
2023-03-29T10:58:53.498Z,10.55
2023-03-29T11:01:47.032Z,10.54
2023-03-29T11:04:37.410Z,10.55
2023-03-29T11:07:30.616Z,10.48
2023-03-29T11:10:22.158Z,10.41
2023-03-29T11:13:14.164Z,10.44
2023-03-29T11:15:41.646Z,10.45
2023-03-29T11:18:23.874Z,10.41
2023-03-29T11:21:39.821Z,10.35
2023-03-29T11:24:45.531Z,10.38
2023-03-29T11:27:42.710Z,10.34
2023-03-29T11:30:22.121Z,10.42
2023-03-29T11:33:04.593Z,10.41
2023-03-29T11:35:42.810Z,10.48
2023-03-29T11:38:16.255Z,10.44
2023-03-29T11:41:11.040Z,10.48
2023-03-29T11:43:44.238Z,10.66
2023-03-29T11:46:11.895Z,10.68
2023-03-29T11:48:48.733Z,10.81
2023-03-29T11:51:27.654Z,10.91
2023-03-29T11:54:06.626Z,11.14
2023-03-29T11:56:44.019Z,11.27
2023-03-29T11:59:43.132Z,11.39
2023-03-29T12:02:25.452Z,11.38
2023-03-29T12:04:56.023Z,11.32
2023-03-29T12:07:35.914Z,11.39
2023-03-29T12:10:23.447Z,11.56
2023-03-29T12:12:53.371Z,11.58
2023-03-29T12:15:24.887Z,11.38
2023-03-29T12:18:05.913Z,11.44
2023-03-29T12:20:38.736Z,11.26
2023-03-29T12:23:08.061Z,11.13
2023-03-29T12:26:01.428Z,11.21
2023-03-29T12:28:40.811Z,11.14
2023-03-29T12:31:20.975Z,11.06
2023-03-29T12:34:09.069Z,10.97
2023-03-29T12:37:02.516Z,10.85
2023-03-29T12:39:31.429Z,10.81
2023-03-29T12:42:15.998Z,10.87
2023-03-29T12:44:59.738Z,10.82
2023-03-29T12:47:33.802Z,10.74
2023-03-29T12:50:01.717Z,10.65
2023-03-29T12:52:35.437Z,10.67
2023-03-29T12:55:37.729Z,10.65
2023-03-29T12:58:08.369Z,10.50
2023-03-29T13:00:44.634Z,10.58
2023-03-29T13:03:40.458Z,10.66
2023-03-29T13:06:10.228Z,10.69
2023-03-29T13:08:42.777Z,10.75
2023-03-29T13:11:41.368Z,10.71
2023-03-29T13:14:19.884Z,10.72
2023-03-29T13:16:47.922Z,10.67
2023-03-29T13:19:33.742Z,10.76
2023-03-29T13:22:20.923Z,10.83
2023-03-29T13:25:31.680Z,10.89
2023-03-29T13:28:27.938Z,10.86
2023-03-29T13:30:58.456Z,10.94
2023-03-29T13:34:07.182Z,10.98
2023-03-29T13:36:58.415Z,11.01
2023-03-29T13:39:30.363Z,10.93
2023-03-29T13:42:28.952Z,10.97
2023-03-29T13:45:25.334Z,11.05
2023-03-29T13:48:06.499Z,11.17
2023-03-29T13:50:39.514Z,11.26
2023-03-29T13:53:15.507Z,11.27
2023-03-29T13:55:48.407Z,11.27
2023-03-29T13:58:34.400Z,11.26
2023-03-29T14:01:16.633Z,11.26
2023-03-29T14:03:46.797Z,11.18
2023-03-29T14:06:17.815Z,11.26
2023-03-29T14:08:45.853Z,11.29
2023-03-29T14:11:23.226Z,11.36
2023-03-29T14:13:55.818Z,11.37
2023-03-29T14:16:32.047Z,11.56
2023-03-29T14:19:03.220Z,11.73
2023-03-29T14:21:30.686Z,11.89
2023-03-29T14:24:01.713Z,12.06
2023-03-29T14:26:35.952Z,12.34
2023-03-29T14:29:04.748Z,12.62
2023-03-29T14:31:41.277Z,12.62
2023-03-29T14:34:18.826Z,12.62
2023-03-29T14:36:54.408Z,12.62
2023-03-29T14:39:23.370Z,13.08
2023-03-29T14:41:55.960Z,13.15
2023-03-29T14:44:27.675Z,13.14
2023-03-29T14:46:56.118Z,13.21
2023-03-29T14:49:23.886Z,13.03
2023-03-29T14:51:52.275Z,12.81
2023-03-29T14:54:25.646Z,12.78
2023-03-29T14:56:53.869Z,12.66
2023-03-29T14:59:36.351Z,12.60
2023-03-29T15:02:04.690Z,12.62
2023-03-29T15:04:34.825Z,12.70
2023-03-29T15:07:04.974Z,12.72
2023-03-29T15:09:34.501Z,12.75
2023-03-29T15:12:03.549Z,12.84
2023-03-29T15:14:35.445Z,13.01
2023-03-29T15:17:22.634Z,13.33
2023-03-29T15:20:27.076Z,13.72
2023-03-29T15:23:01.379Z,13.65
2023-03-29T15:25:37.326Z,13.41
2023-03-29T15:28:04.928Z,13.03
2023-03-29T15:30:40.774Z,12.92
2023-03-29T15:33:23.008Z,12.88
2023-03-29T15:35:52.512Z,12.80
2023-03-29T15:38:23.395Z,12.61
2023-03-29T15:40:55.359Z,12.57
2023-03-29T15:43:24.639Z,12.40
2023-03-29T15:45:51.778Z,12.27
2023-03-29T15:48:26.571Z,12.36
2023-03-29T15:50:58.796Z,12.32
2023-03-29T15:53:27.975Z,12.24
2023-03-29T15:55:59.105Z,12.20
2023-03-29T15:58:30.334Z,12.22
2023-03-29T16:01:35.705Z,12.20
2023-03-29T16:04:32.604Z,12.22
2023-03-29T16:06:59.804Z,12.21
2023-03-29T16:09:27.744Z,12.15
2023-03-29T16:11:56.090Z,12.13
2023-03-29T16:14:27.561Z,12.10
2023-03-29T16:17:00.680Z,12.02
2023-03-29T16:19:28.840Z,11.97
2023-03-29T16:21:57.357Z,11.97
2023-03-29T16:24:29.968Z,11.96
2023-03-29T16:26:58.930Z,11.92
2023-03-29T16:29:26.015Z,11.87
2023-03-29T16:31:54.030Z,11.82
2023-03-29T16:34:22.723Z,11.84
2023-03-29T16:36:50.850Z,11.83
2023-03-29T16:39:18.330Z,11.75
2023-03-29T16:41:48.508Z,11.70
2023-03-29T16:44:19.549Z,11.70
2023-03-29T16:46:48.216Z,11.74
2023-03-29T16:49:18.389Z,11.78
2023-03-29T16:51:48.812Z,11.73
2023-03-29T16:54:20.009Z,11.71
2023-03-29T16:56:47.354Z,11.70
2023-03-29T16:59:15.238Z,11.75
2023-03-29T17:01:42.967Z,11.76
2023-03-29T17:04:10.295Z,11.80
2023-03-29T17:06:38.184Z,11.79
2023-03-29T17:09:06.126Z,11.78
2023-03-29T17:11:33.690Z,11.82
2023-03-29T17:14:00.827Z,11.85
2023-03-29T17:16:29.227Z,11.78
2023-03-29T17:19:00.646Z,11.69
2023-03-29T17:21:28.920Z,11.66
2023-03-29T17:23:56.133Z,11.59
2023-03-29T17:26:23.874Z,11.59
2023-03-29T17:28:51.054Z,11.60
2023-03-29T17:31:19.568Z,11.63
2023-03-29T17:33:47.724Z,11.56
2023-03-29T17:36:15.035Z,11.51
2023-03-29T17:38:43.142Z,11.47
2023-03-29T17:41:11.222Z,11.42
2023-03-29T17:43:38.339Z,11.42
2023-03-29T17:46:06.232Z,11.35
2023-03-29T17:48:33.897Z,11.36
2023-03-29T17:51:01.252Z,11.30
2023-03-29T17:53:28.475Z,11.30
2023-03-29T17:55:55.803Z,11.20
2023-03-29T17:58:22.965Z,11.20
2023-03-29T18:00:50.527Z,11.21
2023-03-29T18:03:17.854Z,11.22
2023-03-29T18:05:45.579Z,11.16
2023-03-29T18:08:13.791Z,11.10
2023-03-29T18:10:41.004Z,11.12
2023-03-29T18:13:11.432Z,11.14
2023-03-29T18:15:38.793Z,11.12
2023-03-29T18:18:06.344Z,11.20
2023-03-29T18:20:33.447Z,11.20
2023-03-29T18:23:00.969Z,11.16
2023-03-29T18:25:29.437Z,11.15
2023-03-29T18:27:56.542Z,11.12
2023-03-29T18:30:23.771Z,11.16
2023-03-29T18:32:50.936Z,11.12
2023-03-29T18:35:18.128Z,11.11
2023-03-29T18:37:45.407Z,11.07
2023-03-29T18:40:12.849Z,11.09
2023-03-29T18:42:39.888Z,11.03
2023-03-29T18:45:07.728Z,11.00
2023-03-29T18:47:35.367Z,11.01
2023-03-29T18:50:02.857Z,10.95
2023-03-29T18:52:30.101Z,10.93
2023-03-29T18:54:58.000Z,10.87
2023-03-29T18:57:25.318Z,10.86
2023-03-29T18:59:52.403Z,10.82
2023-03-29T19:02:19.603Z,10.80
2023-03-29T19:04:46.823Z,10.82
2023-03-29T19:08:20.012Z,10.82
2023-03-29T19:10:47.495Z,10.71
2023-03-29T19:13:15.181Z,10.73
2023-03-29T19:15:42.422Z,10.67
2023-03-29T19:18:10.017Z,10.68
2023-03-29T19:20:38.122Z,10.68
2023-03-29T19:23:05.579Z,10.66
2023-03-29T19:25:33.368Z,10.66
2023-03-29T19:28:54.573Z,10.71
2023-03-29T19:31:29.503Z,10.69
2023-03-29T19:33:57.226Z,10.63
2023-03-29T19:36:25.869Z,10.66
2023-03-29T19:38:54.127Z,10.66
2023-03-29T19:41:22.114Z,10.66
2023-03-29T19:43:49.218Z,10.59
2023-03-29T19:46:16.660Z,10.51
2023-03-29T19:48:43.843Z,10.45
2023-03-29T19:51:11.154Z,10.40
2023-03-29T19:53:39.069Z,10.37
2023-03-29T19:56:07.913Z,10.35
2023-03-29T19:58:35.116Z,10.34
2023-03-29T20:01:02.750Z,10.35
2023-03-29T20:03:30.058Z,10.37
2023-03-29T20:05:57.412Z,10.33
2023-03-29T20:08:25.870Z,10.30
2023-03-29T20:11:01.934Z,10.28
2023-03-29T20:13:38.068Z,10.31
2023-03-29T20:16:14.575Z,10.29
2023-03-29T20:18:45.106Z,10.24
2023-03-29T20:21:18.446Z,10.23
2023-03-29T20:23:46.053Z,10.28
2023-03-29T20:26:13.400Z,10.35
2023-03-29T20:28:43.229Z,10.34
2023-03-29T20:31:11.181Z,10.34
2023-03-29T20:33:39.371Z,10.30
2023-03-29T20:36:07.026Z,10.37
2023-03-29T20:38:35.430Z,10.31
2023-03-29T20:41:04.325Z,10.36
2023-03-29T20:43:37.623Z,10.32
2023-03-29T20:46:05.810Z,10.27
2023-03-29T20:48:32.936Z,10.16
2023-03-29T20:51:03.888Z,10.24
2023-03-29T20:53:34.630Z,10.17
2023-03-29T20:56:02.069Z,10.26
2023-03-29T20:58:29.771Z,10.16
2023-03-29T21:00:58.963Z,10.19
2023-03-29T21:03:26.498Z,10.27
2023-03-29T21:05:55.179Z,10.24
2023-03-29T21:08:22.275Z,10.25
2023-03-29T21:10:49.385Z,10.23
2023-03-29T21:13:18.285Z,10.19
2023-03-29T21:15:46.451Z,10.20
2023-03-29T21:18:14.006Z,10.16
2023-03-29T21:20:42.031Z,10.20
2023-03-29T21:23:12.022Z,10.22
2023-03-29T21:25:39.774Z,10.08
2023-03-29T21:28:06.985Z,10.06
2023-03-29T21:30:34.046Z,10.15
2023-03-29T21:33:01.699Z,10.14
2023-03-29T21:35:28.886Z,10.07
2023-03-29T21:37:56.375Z,9.98
2023-03-29T21:40:23.486Z,10.01
2023-03-29T21:42:51.102Z,10.00
2023-03-29T21:45:18.411Z,10.00
2023-03-29T21:47:45.725Z,10.00
2023-03-29T21:50:12.822Z,10.02
2023-03-29T21:52:39.848Z,10.04
2023-03-29T21:55:07.212Z,9.96
2023-03-29T21:57:34.506Z,9.98
2023-03-29T22:00:01.796Z,10.00
2023-03-29T22:02:28.982Z,9.87
2023-03-29T22:04:56.734Z,9.95
2023-03-29T22:07:26.769Z,9.91
2023-03-29T22:09:54.799Z,9.89
2023-03-29T22:12:22.864Z,10.02
2023-03-29T22:14:50.023Z,10.05
2023-03-29T22:17:17.255Z,10.05
2023-03-29T22:19:44.425Z,10.05
2023-03-29T22:22:14.407Z,10.08
2023-03-29T22:24:44.567Z,10.06
2023-03-29T22:27:12.400Z,9.97
2023-03-29T22:29:39.849Z,9.96
2023-03-29T22:32:06.983Z,9.98
2023-03-29T22:34:34.219Z,9.95
2023-03-29T22:37:01.369Z,10.03
2023-03-29T22:39:28.734Z,10.05
2023-03-29T22:41:57.432Z,10.04
2023-03-29T22:44:24.550Z,10.03
2023-03-29T22:46:52.311Z,9.97
2023-03-29T22:49:20.008Z,10.06
2023-03-29T22:51:47.097Z,10.04
2023-03-29T22:54:14.277Z,10.04
2023-03-29T22:56:41.422Z,10.07
2023-03-29T22:59:08.834Z,10.07
2023-03-29T23:01:36.049Z,10.06
2023-03-29T23:04:04.763Z,10.03
2023-03-29T23:06:31.965Z,10.06
2023-03-29T23:08:59.090Z,10.09
2023-03-29T23:11:26.658Z,10.03
2023-03-29T23:13:54.020Z,10.00
2023-03-29T23:16:21.576Z,10.04
2023-03-29T23:18:49.446Z,10.03
2023-03-29T23:21:16.701Z,10.01
2023-03-29T23:23:45.087Z,9.95
2023-03-29T23:26:12.492Z,9.88
2023-03-29T23:28:41.214Z,9.93
2023-03-29T23:31:11.755Z,9.90
2023-03-29T23:33:42.431Z,9.79
2023-03-29T23:36:12.641Z,9.79
2023-03-29T23:38:40.517Z,9.87
2023-03-29T23:41:11.685Z,9.88
2023-03-29T23:43:42.602Z,9.94
2023-03-29T23:46:13.182Z,9.89
2023-03-29T23:48:40.760Z,9.93
2023-03-29T23:51:08.162Z,9.87
2023-03-29T23:53:35.645Z,9.90
2023-03-29T23:56:05.044Z,9.91
2023-03-29T23:58:34.930Z,9.97
